sensor_id;sensor_type;location;lat;lon;timestamp;P1;durP1;ratioP1;P2;durP2;ratioP2
35552;SDS011;21656;46.054;13.614;2022-12-08T00:02:10;3.58;;;2.25;;
35552;SDS011;21656;46.054;13.614;2022-12-08T00:04:37;4.35;;;2.10;;
35552;SDS011;21656;46.054;13.614;2022-12-08T00:07:23;2.75;;;1.90;;
35552;SDS011;21656;46.054;13.614;2022-12-08T00:10:07;3.15;;;2.25;;
35552;SDS011;21656;46.054;13.614;2022-12-08T00:12:33;3.58;;;2.25;;
35552;SDS011;21656;46.054;13.614;2022-12-08T00:14:58;3.67;;;2.50;;
35552;SDS011;21656;46.054;13.614;2022-12-08T00:17:24;2.75;;;1.90;;
35552;SDS011;21656;46.054;13.614;2022-12-08T00:19:49;3.50;;;2.42;;
35552;SDS011;21656;46.054;13.614;2022-12-08T00:22:14;2.85;;;2.13;;
35552;SDS011;21656;46.054;13.614;2022-12-08T00:24:40;2.65;;;2.03;;
35552;SDS011;21656;46.054;13.614;2022-12-08T00:27:09;2.35;;;1.80;;
35552;SDS011;21656;46.054;13.614;2022-12-08T00:29:36;3.25;;;2.33;;
35552;SDS011;21656;46.054;13.614;2022-12-08T00:32:03;3.15;;;2.38;;
35552;SDS011;21656;46.054;13.614;2022-12-08T00:34:29;2.85;;;2.20;;
35552;SDS011;21656;46.054;13.614;2022-12-08T00:36:55;3.08;;;2.17;;
35552;SDS011;21656;46.054;13.614;2022-12-08T00:39:20;4.15;;;2.70;;
35552;SDS011;21656;46.054;13.614;2022-12-08T00:41:46;5.93;;;2.30;;
35552;SDS011;21656;46.054;13.614;2022-12-08T00:46:55;3.58;;;2.10;;
35552;SDS011;21656;46.054;13.614;2022-12-08T00:49:21;3.05;;;2.25;;
35552;SDS011;21656;46.054;13.614;2022-12-08T00:51:47;4.00;;;2.53;;
35552;SDS011;21656;46.054;13.614;2022-12-08T00:54:13;2.80;;;2.03;;
35552;SDS011;21656;46.054;13.614;2022-12-08T00:56:38;3.70;;;2.60;;
35552;SDS011;21656;46.054;13.614;2022-12-08T00:59:04;4.28;;;2.42;;
35552;SDS011;21656;46.054;13.614;2022-12-08T01:01:31;4.60;;;2.42;;
35552;SDS011;21656;46.054;13.614;2022-12-08T01:03:57;3.30;;;2.17;;
35552;SDS011;21656;46.054;13.614;2022-12-08T01:06:22;3.17;;;2.13;;
35552;SDS011;21656;46.054;13.614;2022-12-08T01:08:48;4.07;;;2.05;;
35552;SDS011;21656;46.054;13.614;2022-12-08T01:11:17;3.58;;;2.50;;
35552;SDS011;21656;46.054;13.614;2022-12-08T01:13:44;4.00;;;2.47;;
35552;SDS011;21656;46.054;13.614;2022-12-08T01:16:19;3.60;;;2.42;;
35552;SDS011;21656;46.054;13.614;2022-12-08T01:18:45;3.55;;;2.15;;
35552;SDS011;21656;46.054;13.614;2022-12-08T01:21:11;3.47;;;2.40;;
35552;SDS011;21656;46.054;13.614;2022-12-08T01:23:36;4.00;;;2.50;;
35552;SDS011;21656;46.054;13.614;2022-12-08T01:26:02;2.75;;;2.03;;
35552;SDS011;21656;46.054;13.614;2022-12-08T01:28:29;5.80;;;2.58;;
35552;SDS011;21656;46.054;13.614;2022-12-08T01:30:55;3.17;;;2.05;;
35552;SDS011;21656;46.054;13.614;2022-12-08T01:33:22;4.05;;;2.70;;
35552;SDS011;21656;46.054;13.614;2022-12-08T01:35:47;2.67;;;2.03;;
35552;SDS011;21656;46.054;13.614;2022-12-08T01:38:13;6.90;;;2.05;;
35552;SDS011;21656;46.054;13.614;2022-12-08T01:40:38;3.03;;;2.30;;
35552;SDS011;21656;46.054;13.614;2022-12-08T01:43:03;2.83;;;2.10;;
35552;SDS011;21656;46.054;13.614;2022-12-08T01:45:30;2.55;;;2.17;;
35552;SDS011;21656;46.054;13.614;2022-12-08T01:48:01;4.05;;;1.95;;
35552;SDS011;21656;46.054;13.614;2022-12-08T01:50:30;3.42;;;2.03;;
35552;SDS011;21656;46.054;13.614;2022-12-08T01:53:00;2.38;;;2.00;;
35552;SDS011;21656;46.054;13.614;2022-12-08T01:55:36;5.05;;;2.35;;
35552;SDS011;21656;46.054;13.614;2022-12-08T01:58:27;3.53;;;2.17;;
35552;SDS011;21656;46.054;13.614;2022-12-08T02:00:56;3.97;;;2.22;;
35552;SDS011;21656;46.054;13.614;2022-12-08T02:03:26;3.80;;;2.38;;
35552;SDS011;21656;46.054;13.614;2022-12-08T02:06:02;3.22;;;2.17;;
35552;SDS011;21656;46.054;13.614;2022-12-08T02:08:27;4.43;;;2.25;;
35552;SDS011;21656;46.054;13.614;2022-12-08T02:10:53;3.17;;;2.13;;
35552;SDS011;21656;46.054;13.614;2022-12-08T02:13:19;2.83;;;2.05;;
35552;SDS011;21656;46.054;13.614;2022-12-08T02:18:22;3.60;;;2.15;;
35552;SDS011;21656;46.054;13.614;2022-12-08T02:23:47;4.15;;;1.98;;
35552;SDS011;21656;46.054;13.614;2022-12-08T02:29:26;3.13;;;2.13;;
35552;SDS011;21656;46.054;13.614;2022-12-08T02:37:34;3.28;;;2.10;;
35552;SDS011;21656;46.054;13.614;2022-12-08T02:40:12;5.10;;;2.30;;
35552;SDS011;21656;46.054;13.614;2022-12-08T02:42:51;2.88;;;2.08;;
35552;SDS011;21656;46.054;13.614;2022-12-08T02:45:59;5.30;;;2.50;;
35552;SDS011;21656;46.054;13.614;2022-12-08T02:48:20;3.47;;;2.17;;
35552;SDS011;21656;46.054;13.614;2022-12-08T02:50:46;3.15;;;2.13;;
35552;SDS011;21656;46.054;13.614;2022-12-08T02:53:11;4.68;;;2.45;;
35552;SDS011;21656;46.054;13.614;2022-12-08T02:55:56;3.03;;;2.25;;
35552;SDS011;21656;46.054;13.614;2022-12-08T03:01:42;3.55;;;2.10;;
35552;SDS011;21656;46.054;13.614;2022-12-08T03:07:07;2.33;;;1.85;;
35552;SDS011;21656;46.054;13.614;2022-12-08T03:09:38;3.92;;;2.25;;
35552;SDS011;21656;46.054;13.614;2022-12-08T03:12:29;3.35;;;2.33;;
35552;SDS011;21656;46.054;13.614;2022-12-08T03:14:59;3.33;;;2.20;;
35552;SDS011;21656;46.054;13.614;2022-12-08T03:17:36;2.90;;;2.05;;
35552;SDS011;21656;46.054;13.614;2022-12-08T03:20:08;3.85;;;2.30;;
35552;SDS011;21656;46.054;13.614;2022-12-08T03:22:38;4.40;;;2.35;;
35552;SDS011;21656;46.054;13.614;2022-12-08T03:25:06;3.75;;;2.60;;
35552;SDS011;21656;46.054;13.614;2022-12-08T03:27:34;4.00;;;2.22;;
35552;SDS011;21656;46.054;13.614;2022-12-08T03:29:59;3.65;;;2.40;;
35552;SDS011;21656;46.054;13.614;2022-12-08T03:34:51;3.78;;;2.15;;
35552;SDS011;21656;46.054;13.614;2022-12-08T03:37:19;3.10;;;2.13;;
35552;SDS011;21656;46.054;13.614;2022-12-08T03:39:45;4.32;;;2.30;;
35552;SDS011;21656;46.054;13.614;2022-12-08T03:42:10;3.60;;;2.20;;
35552;SDS011;21656;46.054;13.614;2022-12-08T03:44:36;2.90;;;1.85;;
35552;SDS011;21656;46.054;13.614;2022-12-08T03:47:01;3.50;;;2.33;;
35552;SDS011;21656;46.054;13.614;2022-12-08T03:49:26;3.50;;;2.08;;
35552;SDS011;21656;46.054;13.614;2022-12-08T03:51:52;3.88;;;1.92;;
35552;SDS011;21656;46.054;13.614;2022-12-08T03:54:17;2.88;;;1.90;;
35552;SDS011;21656;46.054;13.614;2022-12-08T03:56:43;2.63;;;1.83;;
35552;SDS011;21656;46.054;13.614;2022-12-08T03:59:08;2.00;;;1.60;;
35552;SDS011;21656;46.054;13.614;2022-12-08T04:01:34;3.17;;;2.03;;
35552;SDS011;21656;46.054;13.614;2022-12-08T04:03:59;8.02;;;2.30;;
35552;SDS011;21656;46.054;13.614;2022-12-08T04:06:25;1.85;;;1.60;;
35552;SDS011;21656;46.054;13.614;2022-12-08T04:08:51;2.53;;;1.70;;
35552;SDS011;21656;46.054;13.614;2022-12-08T04:11:17;3.00;;;2.00;;
35552;SDS011;21656;46.054;13.614;2022-12-08T04:13:43;2.63;;;1.75;;
35552;SDS011;21656;46.054;13.614;2022-12-08T04:16:19;2.72;;;2.10;;
35552;SDS011;21656;46.054;13.614;2022-12-08T04:18:47;2.20;;;1.88;;
35552;SDS011;21656;46.054;13.614;2022-12-08T04:21:13;2.15;;;1.52;;
35552;SDS011;21656;46.054;13.614;2022-12-08T04:23:38;2.38;;;1.85;;
35552;SDS011;21656;46.054;13.614;2022-12-08T04:26:04;2.55;;;1.77;;
35552;SDS011;21656;46.054;13.614;2022-12-08T04:28:29;2.75;;;1.80;;
35552;SDS011;21656;46.054;13.614;2022-12-08T04:30:55;2.72;;;1.73;;
35552;SDS011;21656;46.054;13.614;2022-12-08T04:33:20;4.38;;;1.83;;
35552;SDS011;21656;46.054;13.614;2022-12-08T04:35:46;1.80;;;1.50;;
35552;SDS011;21656;46.054;13.614;2022-12-08T04:38:11;1.88;;;1.48;;
35552;SDS011;21656;46.054;13.614;2022-12-08T04:40:37;2.83;;;1.83;;
35552;SDS011;21656;46.054;13.614;2022-12-08T04:43:03;3.67;;;1.90;;
35552;SDS011;21656;46.054;13.614;2022-12-08T04:45:29;2.13;;;1.67;;
35552;SDS011;21656;46.054;13.614;2022-12-08T04:47:54;2.35;;;1.70;;
35552;SDS011;21656;46.054;13.614;2022-12-08T04:50:20;2.85;;;1.70;;
35552;SDS011;21656;46.054;13.614;2022-12-08T04:52:45;3.08;;;1.70;;
35552;SDS011;21656;46.054;13.614;2022-12-08T04:55:11;2.63;;;1.83;;
35552;SDS011;21656;46.054;13.614;2022-12-08T04:57:36;2.10;;;1.40;;
35552;SDS011;21656;46.054;13.614;2022-12-08T05:00:02;2.53;;;1.60;;
35552;SDS011;21656;46.054;13.614;2022-12-08T05:02:28;2.28;;;1.88;;
35552;SDS011;21656;46.054;13.614;2022-12-08T05:04:53;1.92;;;1.48;;
35552;SDS011;21656;46.054;13.614;2022-12-08T05:07:19;2.35;;;1.65;;
35552;SDS011;21656;46.054;13.614;2022-12-08T05:09:44;2.20;;;1.60;;
35552;SDS011;21656;46.054;13.614;2022-12-08T05:12:10;2.80;;;1.40;;
35552;SDS011;21656;46.054;13.614;2022-12-08T05:14:35;2.00;;;1.40;;
35552;SDS011;21656;46.054;13.614;2022-12-08T05:17:00;2.13;;;1.40;;
35552;SDS011;21656;46.054;13.614;2022-12-08T05:19:26;1.67;;;1.40;;
35552;SDS011;21656;46.054;13.614;2022-12-08T05:21:51;2.85;;;1.83;;
35552;SDS011;21656;46.054;13.614;2022-12-08T05:24:17;2.13;;;1.65;;
35552;SDS011;21656;46.054;13.614;2022-12-08T05:26:42;2.13;;;1.70;;
35552;SDS011;21656;46.054;13.614;2022-12-08T05:29:07;3.35;;;1.55;;
35552;SDS011;21656;46.054;13.614;2022-12-08T05:31:33;2.10;;;1.50;;
35552;SDS011;21656;46.054;13.614;2022-12-08T05:33:58;1.42;;;1.33;;
35552;SDS011;21656;46.054;13.614;2022-12-08T05:36:24;1.98;;;1.58;;
35552;SDS011;21656;46.054;13.614;2022-12-08T05:38:49;3.72;;;1.92;;
35552;SDS011;21656;46.054;13.614;2022-12-08T05:41:19;1.75;;;1.30;;
35552;SDS011;21656;46.054;13.614;2022-12-08T05:43:45;1.52;;;1.20;;
35552;SDS011;21656;46.054;13.614;2022-12-08T05:46:11;3.00;;;1.90;;
35552;SDS011;21656;46.054;13.614;2022-12-08T05:48:37;1.60;;;1.40;;
35552;SDS011;21656;46.054;13.614;2022-12-08T05:51:03;1.48;;;1.27;;
35552;SDS011;21656;46.054;13.614;2022-12-08T05:53:29;3.35;;;1.80;;
35552;SDS011;21656;46.054;13.614;2022-12-08T05:55:55;3.67;;;1.60;;
35552;SDS011;21656;46.054;13.614;2022-12-08T05:58:21;3.05;;;1.52;;
35552;SDS011;21656;46.054;13.614;2022-12-08T06:00:47;1.77;;;1.38;;
35552;SDS011;21656;46.054;13.614;2022-12-08T06:03:14;1.92;;;1.50;;
35552;SDS011;21656;46.054;13.614;2022-12-08T06:05:40;1.90;;;1.40;;
35552;SDS011;21656;46.054;13.614;2022-12-08T06:08:06;1.30;;;1.17;;
35552;SDS011;21656;46.054;13.614;2022-12-08T06:10:32;1.63;;;1.20;;
35552;SDS011;21656;46.054;13.614;2022-12-08T06:12:57;2.28;;;1.23;;
35552;SDS011;21656;46.054;13.614;2022-12-08T06:15:23;1.58;;;1.08;;
35552;SDS011;21656;46.054;13.614;2022-12-08T06:17:48;1.33;;;1.20;;
35552;SDS011;21656;46.054;13.614;2022-12-08T06:20:14;1.00;;;1.00;;
35552;SDS011;21656;46.054;13.614;2022-12-08T06:22:39;1.02;;;0.98;;
35552;SDS011;21656;46.054;13.614;2022-12-08T06:25:05;1.67;;;1.38;;
35552;SDS011;21656;46.054;13.614;2022-12-08T06:27:31;1.98;;;1.27;;
35552;SDS011;21656;46.054;13.614;2022-12-08T06:29:57;1.58;;;1.30;;
35552;SDS011;21656;46.054;13.614;2022-12-08T06:32:23;2.30;;;1.77;;
35552;SDS011;21656;46.054;13.614;2022-12-08T06:34:48;1.70;;;1.27;;
35552;SDS011;21656;46.054;13.614;2022-12-08T06:37:14;3.30;;;1.30;;
35552;SDS011;21656;46.054;13.614;2022-12-08T06:39:39;1.85;;;1.30;;
35552;SDS011;21656;46.054;13.614;2022-12-08T06:42:05;1.70;;;1.40;;
35552;SDS011;21656;46.054;13.614;2022-12-08T06:44:49;1.45;;;1.20;;
35552;SDS011;21656;46.054;13.614;2022-12-08T06:47:15;1.33;;;1.23;;
35552;SDS011;21656;46.054;13.614;2022-12-08T06:49:40;4.15;;;1.60;;
35552;SDS011;21656;46.054;13.614;2022-12-08T06:52:06;6.85;;;3.83;;
35552;SDS011;21656;46.054;13.614;2022-12-08T06:54:31;10.07;;;6.10;;
35552;SDS011;21656;46.054;13.614;2022-12-08T06:56:56;13.05;;;7.00;;
35552;SDS011;21656;46.054;13.614;2022-12-08T06:59:22;12.10;;;7.38;;
35552;SDS011;21656;46.054;13.614;2022-12-08T07:01:50;20.00;;;11.18;;
35552;SDS011;21656;46.054;13.614;2022-12-08T07:04:15;9.32;;;5.35;;
35552;SDS011;21656;46.054;13.614;2022-12-08T07:06:41;8.90;;;4.13;;
35552;SDS011;21656;46.054;13.614;2022-12-08T07:09:06;8.55;;;2.58;;
35552;SDS011;21656;46.054;13.614;2022-12-08T07:11:32;3.88;;;2.40;;
35552;SDS011;21656;46.054;13.614;2022-12-08T07:13:57;1.90;;;1.42;;
35552;SDS011;21656;46.054;13.614;2022-12-08T07:16:23;3.85;;;1.90;;
35552;SDS011;21656;46.054;13.614;2022-12-08T07:18:48;3.67;;;2.50;;
35552;SDS011;21656;46.054;13.614;2022-12-08T07:21:14;1.30;;;1.20;;
35552;SDS011;21656;46.054;13.614;2022-12-08T07:23:40;2.03;;;1.60;;
35552;SDS011;21656;46.054;13.614;2022-12-08T07:26:06;9.00;;;4.95;;
35552;SDS011;21656;46.054;13.614;2022-12-08T07:28:34;2.35;;;1.40;;
35552;SDS011;21656;46.054;13.614;2022-12-08T07:31:02;1.77;;;1.33;;
35552;SDS011;21656;46.054;13.614;2022-12-08T07:33:29;1.95;;;1.27;;
35552;SDS011;21656;46.054;13.614;2022-12-08T07:35:55;1.90;;;1.40;;
35552;SDS011;21656;46.054;13.614;2022-12-08T07:38:22;2.70;;;1.23;;
35552;SDS011;21656;46.054;13.614;2022-12-08T07:40:49;2.80;;;1.38;;
35552;SDS011;21656;46.054;13.614;2022-12-08T07:43:15;2.45;;;1.40;;
35552;SDS011;21656;46.054;13.614;2022-12-08T07:45:41;0.93;;;0.93;;
35552;SDS011;21656;46.054;13.614;2022-12-08T07:48:06;1.42;;;1.20;;
35552;SDS011;21656;46.054;13.614;2022-12-08T07:50:32;1.92;;;1.40;;
35552;SDS011;21656;46.054;13.614;2022-12-08T07:52:58;1.73;;;1.30;;
35552;SDS011;21656;46.054;13.614;2022-12-08T07:55:24;3.47;;;1.30;;
35552;SDS011;21656;46.054;13.614;2022-12-08T07:57:50;2.08;;;1.55;;
35552;SDS011;21656;46.054;13.614;2022-12-08T08:00:16;2.22;;;1.77;;
35552;SDS011;21656;46.054;13.614;2022-12-08T08:02:42;3.88;;;2.72;;
35552;SDS011;21656;46.054;13.614;2022-12-08T08:05:08;1.83;;;1.50;;
35552;SDS011;21656;46.054;13.614;2022-12-08T08:07:34;1.70;;;1.20;;
35552;SDS011;21656;46.054;13.614;2022-12-08T08:10:00;1.60;;;1.40;;
35552;SDS011;21656;46.054;13.614;2022-12-08T08:12:26;5.68;;;1.42;;
35552;SDS011;21656;46.054;13.614;2022-12-08T08:14:51;1.67;;;1.40;;
35552;SDS011;21656;46.054;13.614;2022-12-08T08:17:16;2.88;;;1.55;;
35552;SDS011;21656;46.054;13.614;2022-12-08T08:19:42;2.65;;;1.70;;
35552;SDS011;21656;46.054;13.614;2022-12-08T08:22:07;13.80;;;4.85;;
35552;SDS011;21656;46.054;13.614;2022-12-08T08:24:32;1.77;;;1.40;;
35552;SDS011;21656;46.054;13.614;2022-12-08T08:26:58;1.50;;;1.23;;
35552;SDS011;21656;46.054;13.614;2022-12-08T08:29:24;1.20;;;1.10;;
35552;SDS011;21656;46.054;13.614;2022-12-08T08:31:49;0.82;;;0.82;;
35552;SDS011;21656;46.054;13.614;2022-12-08T08:34:15;1.17;;;1.08;;
35552;SDS011;21656;46.054;13.614;2022-12-08T08:36:41;1.38;;;1.00;;
35552;SDS011;21656;46.054;13.614;2022-12-08T08:39:06;1.20;;;1.00;;
35552;SDS011;21656;46.054;13.614;2022-12-08T08:41:32;1.48;;;1.20;;
35552;SDS011;21656;46.054;13.614;2022-12-08T08:43:57;1.58;;;1.20;;
35552;SDS011;21656;46.054;13.614;2022-12-08T08:46:23;1.52;;;1.00;;
35552;SDS011;21656;46.054;13.614;2022-12-08T08:48:48;1.30;;;1.10;;
35552;SDS011;21656;46.054;13.614;2022-12-08T08:51:13;2.10;;;0.98;;
35552;SDS011;21656;46.054;13.614;2022-12-08T08:53:40;1.35;;;1.00;;
35552;SDS011;21656;46.054;13.614;2022-12-08T08:56:13;1.58;;;1.42;;
35552;SDS011;21656;46.054;13.614;2022-12-08T08:58:40;1.23;;;1.00;;
35552;SDS011;21656;46.054;13.614;2022-12-08T09:01:05;1.60;;;1.25;;
35552;SDS011;21656;46.054;13.614;2022-12-08T09:03:31;3.28;;;1.48;;
35552;SDS011;21656;46.054;13.614;2022-12-08T09:05:56;1.65;;;1.20;;
35552;SDS011;21656;46.054;13.614;2022-12-08T09:08:22;1.10;;;0.95;;
35552;SDS011;21656;46.054;13.614;2022-12-08T09:10:48;1.75;;;1.30;;
35552;SDS011;21656;46.054;13.614;2022-12-08T09:13:13;1.70;;;1.20;;
35552;SDS011;21656;46.054;13.614;2022-12-08T09:15:39;1.60;;;1.30;;
35552;SDS011;21656;46.054;13.614;2022-12-08T09:18:04;1.35;;;1.20;;
35552;SDS011;21656;46.054;13.614;2022-12-08T09:20:33;1.40;;;0.90;;
35552;SDS011;21656;46.054;13.614;2022-12-08T09:22:59;1.33;;;1.00;;
35552;SDS011;21656;46.054;13.614;2022-12-08T09:25:24;1.30;;;1.10;;
35552;SDS011;21656;46.054;13.614;2022-12-08T09:27:50;1.10;;;1.00;;
35552;SDS011;21656;46.054;13.614;2022-12-08T09:30:15;1.33;;;1.00;;
35552;SDS011;21656;46.054;13.614;2022-12-08T09:32:41;1.27;;;1.10;;
35552;SDS011;21656;46.054;13.614;2022-12-08T09:35:06;1.23;;;1.02;;
35552;SDS011;21656;46.054;13.614;2022-12-08T09:37:32;1.02;;;0.95;;
35552;SDS011;21656;46.054;13.614;2022-12-08T09:39:58;1.10;;;1.00;;
35552;SDS011;21656;46.054;13.614;2022-12-08T09:42:32;1.75;;;1.20;;
35552;SDS011;21656;46.054;13.614;2022-12-08T09:45:10;1.30;;;1.20;;
35552;SDS011;21656;46.054;13.614;2022-12-08T09:47:41;1.80;;;1.20;;
35552;SDS011;21656;46.054;13.614;2022-12-08T09:50:16;1.33;;;1.00;;
35552;SDS011;21656;46.054;13.614;2022-12-08T09:52:52;0.90;;;0.90;;
35552;SDS011;21656;46.054;13.614;2022-12-08T09:55:45;2.10;;;0.90;;
35552;SDS011;21656;46.054;13.614;2022-12-08T10:01:09;3.47;;;1.20;;
35552;SDS011;21656;46.054;13.614;2022-12-08T10:03:36;1.30;;;1.20;;
35552;SDS011;21656;46.054;13.614;2022-12-08T10:08:36;1.65;;;1.10;;
35552;SDS011;21656;46.054;13.614;2022-12-08T10:11:16;1.20;;;1.00;;
35552;SDS011;21656;46.054;13.614;2022-12-08T10:13:52;0.90;;;0.90;;
35552;SDS011;21656;46.054;13.614;2022-12-08T10:16:39;1.27;;;1.08;;
35552;SDS011;21656;46.054;13.614;2022-12-08T10:19:11;0.82;;;0.82;;
35552;SDS011;21656;46.054;13.614;2022-12-08T10:21:45;1.20;;;0.98;;
35552;SDS011;21656;46.054;13.614;2022-12-08T10:24:19;1.10;;;0.80;;
35552;SDS011;21656;46.054;13.614;2022-12-08T10:26:46;1.90;;;1.00;;
35552;SDS011;21656;46.054;13.614;2022-12-08T10:29:12;1.05;;;0.95;;
35552;SDS011;21656;46.054;13.614;2022-12-08T10:31:38;3.05;;;1.20;;
35552;SDS011;21656;46.054;13.614;2022-12-08T10:34:36;5.13;;;1.38;;
35552;SDS011;21656;46.054;13.614;2022-12-08T10:36:56;1.30;;;1.02;;
35552;SDS011;21656;46.054;13.614;2022-12-08T10:39:41;1.23;;;0.95;;
35552;SDS011;21656;46.054;13.614;2022-12-08T10:47:22;0.95;;;0.85;;
35552;SDS011;21656;46.054;13.614;2022-12-08T10:52:41;1.77;;;1.02;;
35552;SDS011;21656;46.054;13.614;2022-12-08T10:55:16;1.17;;;1.02;;
35552;SDS011;21656;46.054;13.614;2022-12-08T10:57:44;1.25;;;0.80;;
35552;SDS011;21656;46.054;13.614;2022-12-08T11:00:13;0.80;;;0.80;;
35552;SDS011;21656;46.054;13.614;2022-12-08T11:05:21;1.15;;;0.93;;
35552;SDS011;21656;46.054;13.614;2022-12-08T11:07:50;1.13;;;0.80;;
35552;SDS011;21656;46.054;13.614;2022-12-08T11:10:18;0.77;;;0.73;;
35552;SDS011;21656;46.054;13.614;2022-12-08T11:12:48;1.17;;;0.95;;
35552;SDS011;21656;46.054;13.614;2022-12-08T11:15:15;1.25;;;1.00;;
35552;SDS011;21656;46.054;13.614;2022-12-08T11:17:41;1.85;;;1.20;;
35552;SDS011;21656;46.054;13.614;2022-12-08T11:22:39;1.95;;;1.00;;
35552;SDS011;21656;46.054;13.614;2022-12-08T11:27:32;3.13;;;1.77;;
35552;SDS011;21656;46.054;13.614;2022-12-08T11:30:00;2.72;;;1.30;;
35552;SDS011;21656;46.054;13.614;2022-12-08T11:32:28;1.73;;;1.00;;
35552;SDS011;21656;46.054;13.614;2022-12-08T11:34:55;2.92;;;1.23;;
35552;SDS011;21656;46.054;13.614;2022-12-08T11:37:25;1.17;;;1.08;;
35552;SDS011;21656;46.054;13.614;2022-12-08T11:40:19;1.77;;;1.10;;
35552;SDS011;21656;46.054;13.614;2022-12-08T11:42:51;2.22;;;1.23;;
35552;SDS011;21656;46.054;13.614;2022-12-08T11:45:27;2.13;;;1.10;;
35552;SDS011;21656;46.054;13.614;2022-12-08T11:48:00;1.77;;;1.02;;
35552;SDS011;21656;46.054;13.614;2022-12-08T11:50:29;1.88;;;0.95;;
35552;SDS011;21656;46.054;13.614;2022-12-08T11:54:04;0.80;;;0.70;;
35552;SDS011;21656;46.054;13.614;2022-12-08T11:56:26;2.40;;;1.25;;
35552;SDS011;21656;46.054;13.614;2022-12-08T11:59:41;1.83;;;1.15;;
35552;SDS011;21656;46.054;13.614;2022-12-08T12:01:46;1.00;;;0.90;;
35552;SDS011;21656;46.054;13.614;2022-12-08T12:06:56;2.35;;;1.30;;
35552;SDS011;21656;46.054;13.614;2022-12-08T12:15:48;1.45;;;1.10;;
35552;SDS011;21656;46.054;13.614;2022-12-08T12:23:21;1.85;;;1.20;;
35552;SDS011;21656;46.054;13.614;2022-12-08T12:26:15;2.30;;;1.25;;
35552;SDS011;21656;46.054;13.614;2022-12-08T12:31:16;1.48;;;1.17;;
35552;SDS011;21656;46.054;13.614;2022-12-08T12:33:46;3.00;;;1.30;;
35552;SDS011;21656;46.054;13.614;2022-12-08T12:36:13;2.83;;;1.88;;
35552;SDS011;21656;46.054;13.614;2022-12-08T12:38:43;1.95;;;1.52;;
35552;SDS011;21656;46.054;13.614;2022-12-08T12:41:34;3.00;;;1.50;;
35552;SDS011;21656;46.054;13.614;2022-12-08T12:46:54;4.53;;;1.70;;
35552;SDS011;21656;46.054;13.614;2022-12-08T12:55:22;1.30;;;1.00;;
35552;SDS011;21656;46.054;13.614;2022-12-08T12:57:37;1.42;;;1.10;;
35552;SDS011;21656;46.054;13.614;2022-12-08T13:00:17;1.58;;;1.10;;
35552;SDS011;21656;46.054;13.614;2022-12-08T13:02:48;2.45;;;1.60;;
35552;SDS011;21656;46.054;13.614;2022-12-08T13:10:25;1.58;;;1.30;;
35552;SDS011;21656;46.054;13.614;2022-12-08T13:18:28;3.30;;;2.00;;
35552;SDS011;21656;46.054;13.614;2022-12-08T13:26:08;3.40;;;2.03;;
35552;SDS011;21656;46.054;13.614;2022-12-08T13:34:04;1.73;;;1.20;;
35552;SDS011;21656;46.054;13.614;2022-12-08T13:36:32;2.45;;;1.70;;
35552;SDS011;21656;46.054;13.614;2022-12-08T13:39:02;2.35;;;1.40;;
35552;SDS011;21656;46.054;13.614;2022-12-08T13:41:37;1.92;;;1.40;;
35552;SDS011;21656;46.054;13.614;2022-12-08T13:44:11;1.33;;;1.13;;
35552;SDS011;21656;46.054;13.614;2022-12-08T13:46:48;2.38;;;1.48;;
35552;SDS011;21656;46.054;13.614;2022-12-08T13:49:19;2.55;;;1.38;;
35552;SDS011;21656;46.054;13.614;2022-12-08T13:51:50;2.17;;;1.30;;
35552;SDS011;21656;46.054;13.614;2022-12-08T13:56:55;0.98;;;0.88;;
35552;SDS011;21656;46.054;13.614;2022-12-08T13:59:23;1.83;;;1.40;;
35552;SDS011;21656;46.054;13.614;2022-12-08T14:01:57;1.40;;;1.15;;
35552;SDS011;21656;46.054;13.614;2022-12-08T14:07:08;1.50;;;1.30;;
35552;SDS011;21656;46.054;13.614;2022-12-08T14:09:35;1.63;;;1.30;;
35552;SDS011;21656;46.054;13.614;2022-12-08T14:12:03;2.70;;;1.67;;
35552;SDS011;21656;46.054;13.614;2022-12-08T14:14:33;2.38;;;1.58;;
35552;SDS011;21656;46.054;13.614;2022-12-08T14:17:08;3.10;;;1.37;;
35552;SDS011;21656;46.054;13.614;2022-12-08T14:19:41;1.65;;;1.27;;
35552;SDS011;21656;46.054;13.614;2022-12-08T14:22:11;3.15;;;2.08;;
35552;SDS011;21656;46.054;13.614;2022-12-08T14:24:43;6.70;;;3.30;;
35552;SDS011;21656;46.054;13.614;2022-12-08T14:27:14;4.45;;;2.40;;
35552;SDS011;21656;46.054;13.614;2022-12-08T14:29:46;2.83;;;1.90;;
35552;SDS011;21656;46.054;13.614;2022-12-08T14:34:52;4.47;;;2.90;;
35552;SDS011;21656;46.054;13.614;2022-12-08T14:37:27;4.13;;;2.35;;
35552;SDS011;21656;46.054;13.614;2022-12-08T14:40:03;7.00;;;2.83;;
35552;SDS011;21656;46.054;13.614;2022-12-08T14:42:35;5.63;;;3.88;;
35552;SDS011;21656;46.054;13.614;2022-12-08T14:45:11;7.45;;;3.42;;
35552;SDS011;21656;46.054;13.614;2022-12-08T14:47:39;15.95;;;5.97;;
35552;SDS011;21656;46.054;13.614;2022-12-08T14:50:35;12.93;;;5.45;;
35552;SDS011;21656;46.054;13.614;2022-12-08T14:55:25;9.20;;;4.47;;
35552;SDS011;21656;46.054;13.614;2022-12-08T14:57:52;6.88;;;3.50;;
35552;SDS011;21656;46.054;13.614;2022-12-08T15:00:18;5.18;;;3.30;;
35552;SDS011;21656;46.054;13.614;2022-12-08T15:02:46;7.32;;;3.58;;
35552;SDS011;21656;46.054;13.614;2022-12-08T15:05:14;6.78;;;3.55;;
35552;SDS011;21656;46.054;13.614;2022-12-08T15:10:21;7.97;;;3.65;;
35552;SDS011;21656;46.054;13.614;2022-12-08T15:12:57;6.22;;;3.90;;
35552;SDS011;21656;46.054;13.614;2022-12-08T15:15:27;10.82;;;7.82;;
35552;SDS011;21656;46.054;13.614;2022-12-08T15:18:00;13.82;;;4.80;;
35552;SDS011;21656;46.054;13.614;2022-12-08T15:20:44;11.68;;;4.97;;
35552;SDS011;21656;46.054;13.614;2022-12-08T15:25:46;23.80;;;8.77;;
35552;SDS011;21656;46.054;13.614;2022-12-08T15:28:12;30.80;;;10.57;;
35552;SDS011;21656;46.054;13.614;2022-12-08T15:30:39;19.65;;;7.78;;
35552;SDS011;21656;46.054;13.614;2022-12-08T15:33:05;147.15;;;45.30;;
35552;SDS011;21656;46.054;13.614;2022-12-08T15:35:31;50.33;;;19.02;;
35552;SDS011;21656;46.054;13.614;2022-12-08T15:37:57;48.30;;;16.70;;
35552;SDS011;21656;46.054;13.614;2022-12-08T15:40:22;50.70;;;19.48;;
35552;SDS011;21656;46.054;13.614;2022-12-08T15:42:50;18.80;;;7.45;;
35552;SDS011;21656;46.054;13.614;2022-12-08T15:45:16;27.70;;;9.57;;
35552;SDS011;21656;46.054;13.614;2022-12-08T15:47:42;21.58;;;9.13;;
35552;SDS011;21656;46.054;13.614;2022-12-08T15:50:18;11.30;;;6.32;;
35552;SDS011;21656;46.054;13.614;2022-12-08T15:52:45;12.85;;;5.57;;
35552;SDS011;21656;46.054;13.614;2022-12-08T15:55:14;10.50;;;5.78;;
35552;SDS011;21656;46.054;13.614;2022-12-08T15:57:42;12.88;;;6.55;;
35552;SDS011;21656;46.054;13.614;2022-12-08T16:00:23;14.25;;;5.18;;
35552;SDS011;21656;46.054;13.614;2022-12-08T16:02:51;11.25;;;4.38;;
35552;SDS011;21656;46.054;13.614;2022-12-08T16:05:17;11.48;;;6.30;;
35552;SDS011;21656;46.054;13.614;2022-12-08T16:07:42;9.55;;;5.85;;
35552;SDS011;21656;46.054;13.614;2022-12-08T16:10:15;7.93;;;4.45;;
35552;SDS011;21656;46.054;13.614;2022-12-08T16:12:42;7.05;;;4.00;;
35552;SDS011;21656;46.054;13.614;2022-12-08T16:15:26;8.98;;;3.70;;
35552;SDS011;21656;46.054;13.614;2022-12-08T16:17:53;5.28;;;3.72;;
35552;SDS011;21656;46.054;13.614;2022-12-08T16:20:20;8.68;;;4.00;;
35552;SDS011;21656;46.054;13.614;2022-12-08T16:22:46;6.32;;;3.60;;
35552;SDS011;21656;46.054;13.614;2022-12-08T16:25:12;8.07;;;3.70;;
35552;SDS011;21656;46.054;13.614;2022-12-08T16:27:38;11.68;;;4.05;;
35552;SDS011;21656;46.054;13.614;2022-12-08T16:30:06;14.32;;;6.93;;
35552;SDS011;21656;46.054;13.614;2022-12-08T16:32:37;8.70;;;4.32;;